createdAt,value
2023-03-19T00:00:54.308Z,13.55
2023-03-19T00:02:02.080Z,13.53
2023-03-19T00:03:10.317Z,13.53
2023-03-19T00:04:13.970Z,13.51
2023-03-19T00:05:18.824Z,13.54
2023-03-19T00:06:23.401Z,13.52
2023-03-19T00:07:26.912Z,13.50
2023-03-19T00:08:30.894Z,13.48
2023-03-19T00:09:34.504Z,13.46
2023-03-19T00:10:40.723Z,13.42
2023-03-19T00:11:44.403Z,13.37
2023-03-19T00:12:48.011Z,13.19
2023-03-19T00:13:51.488Z,13.16
2023-03-19T00:14:55.025Z,13.13
2023-03-19T00:15:58.485Z,13.11
2023-03-19T00:17:02.374Z,13.09
2023-03-19T00:18:06.913Z,13.12
2023-03-19T00:19:10.471Z,13.12
2023-03-19T00:20:15.506Z,13.10
2023-03-19T00:21:18.900Z,13.09
2023-03-19T00:22:22.708Z,13.07
2023-03-19T00:23:26.327Z,13.05
2023-03-19T00:24:29.729Z,13.00
2023-03-19T00:25:34.744Z,12.98
2023-03-19T00:26:38.483Z,12.95
2023-03-19T00:27:43.079Z,12.92
2023-03-19T00:28:47.068Z,12.85
2023-03-19T00:29:50.998Z,12.77
2023-03-19T00:30:55.048Z,12.65
2023-03-19T00:31:58.820Z,12.55
2023-03-19T00:33:03.162Z,12.50
2023-03-19T00:34:07.366Z,12.42
2023-03-19T00:35:11.918Z,12.30
2023-03-19T00:36:17.391Z,12.32
2023-03-19T00:37:20.924Z,12.34
2023-03-19T00:38:25.043Z,12.31
2023-03-19T00:39:29.080Z,12.26
2023-03-19T00:40:32.978Z,12.23
2023-03-19T00:41:36.965Z,12.14
2023-03-19T00:42:40.567Z,12.12
2023-03-19T00:43:44.004Z,12.08
2023-03-19T00:44:49.575Z,12.09
2023-03-19T00:45:53.412Z,12.07
2023-03-19T00:46:57.263Z,12.03
2023-03-19T00:48:01.217Z,11.92
2023-03-19T00:49:06.130Z,11.92
2023-03-19T00:50:10.730Z,11.89
2023-03-19T00:51:14.356Z,11.90
2023-03-19T00:52:18.381Z,11.91
2023-03-19T00:53:22.165Z,11.93
2023-03-19T00:54:25.623Z,11.96
2023-03-19T00:55:29.214Z,11.98
2023-03-19T00:56:32.627Z,12.06
2023-03-19T00:57:36.295Z,12.09
2023-03-19T00:58:41.548Z,12.15
2023-03-19T00:59:45.078Z,12.20
2023-03-19T01:00:49.172Z,12.23
2023-03-19T01:01:53.158Z,12.27
2023-03-19T01:02:57.109Z,12.32
2023-03-19T01:04:00.754Z,12.33
2023-03-19T01:05:05.280Z,12.32
2023-03-19T01:06:09.275Z,12.35
2023-03-19T01:07:13.208Z,12.39
2023-03-19T01:08:18.295Z,12.43
2023-03-19T01:09:21.874Z,12.47
2023-03-19T01:10:25.936Z,12.52
2023-03-19T01:11:29.981Z,12.56
2023-03-19T01:12:34.528Z,12.58
2023-03-19T01:13:38.051Z,12.60
2023-03-19T01:14:41.754Z,12.57
2023-03-19T01:15:45.972Z,12.62
2023-03-19T01:16:49.945Z,12.61
2023-03-19T01:17:53.539Z,12.60
2023-03-19T01:18:57.364Z,12.64
2023-03-19T01:20:01.164Z,12.65
2023-03-19T01:21:05.212Z,12.67
2023-03-19T01:22:15.116Z,12.64
2023-03-19T01:23:22.044Z,12.66
2023-03-19T01:24:26.051Z,12.68
2023-03-19T01:25:32.236Z,12.69
2023-03-19T01:26:40.571Z,12.64
2023-03-19T01:28:00.843Z,12.62
2023-03-19T01:29:05.032Z,12.56
2023-03-19T01:30:09.632Z,12.54
2023-03-19T01:31:33.819Z,12.52
2023-03-19T01:32:49.259Z,12.50
2023-03-19T01:34:15.819Z,12.53
2023-03-19T01:35:27.012Z,12.55
2023-03-19T01:36:31.298Z,12.56
2023-03-19T01:37:40.234Z,12.57
2023-03-19T01:38:44.438Z,12.60
2023-03-19T01:39:52.160Z,12.58
2023-03-19T01:40:56.420Z,12.55
2023-03-19T01:42:03.365Z,12.54
2023-03-19T01:43:24.039Z,12.50
2023-03-19T01:44:50.790Z,12.45
2023-03-19T01:46:26.957Z,12.41
2023-03-19T01:47:49.442Z,12.34
2023-03-19T01:49:08.276Z,12.33
2023-03-19T01:50:21.939Z,12.32
2023-03-19T01:51:33.520Z,12.26
2023-03-19T01:52:57.184Z,12.23
2023-03-19T01:54:13.559Z,12.23
2023-03-19T01:55:28.422Z,12.21
2023-03-19T01:57:09.948Z,12.12
2023-03-19T01:58:31.811Z,11.97
2023-03-19T02:00:00.593Z,11.92
2023-03-19T02:01:22.649Z,11.88
2023-03-19T02:02:31.540Z,11.86
2023-03-19T02:03:39.380Z,11.86
2023-03-19T02:04:53.917Z,11.85
2023-03-19T02:05:57.789Z,11.86
2023-03-19T02:07:01.773Z,11.86
2023-03-19T02:08:07.985Z,11.87
2023-03-19T02:09:11.428Z,11.87
2023-03-19T02:10:15.932Z,11.85
2023-03-19T02:11:19.799Z,11.86
2023-03-19T02:12:24.157Z,11.86
2023-03-19T02:13:28.873Z,11.83
2023-03-19T02:14:32.560Z,11.79
2023-03-19T02:15:36.844Z,11.77
2023-03-19T02:16:41.066Z,11.73
2023-03-19T02:17:45.267Z,11.73
2023-03-19T02:18:48.876Z,11.67
2023-03-19T02:20:19.382Z,11.63
2023-03-19T02:21:23.080Z,11.61
2023-03-19T02:22:27.892Z,11.58
2023-03-19T02:24:09.067Z,11.57
2023-03-19T02:25:45.193Z,11.56
2023-03-19T02:26:49.262Z,11.54
2023-03-19T02:27:54.497Z,11.53
2023-03-19T02:28:58.322Z,11.54
2023-03-19T02:30:42.663Z,11.51
2023-03-19T02:31:47.803Z,11.52
2023-03-19T02:32:51.315Z,11.47
2023-03-19T02:34:17.599Z,11.44
2023-03-19T02:35:21.372Z,11.33
2023-03-19T02:36:25.038Z,11.27
2023-03-19T02:37:31.907Z,11.25
2023-03-19T02:38:36.981Z,11.23
2023-03-19T02:39:48.944Z,11.22
2023-03-19T02:41:01.717Z,11.20
2023-03-19T02:42:05.858Z,11.22
2023-03-19T02:43:09.823Z,11.24
2023-03-19T02:44:13.850Z,11.27
2023-03-19T02:45:17.576Z,11.27
2023-03-19T02:46:21.441Z,11.27
2023-03-19T02:47:26.000Z,11.19
2023-03-19T02:48:30.164Z,11.16
2023-03-19T02:49:34.325Z,11.18
2023-03-19T02:50:37.975Z,11.12
2023-03-19T02:51:42.474Z,11.10
2023-03-19T02:52:46.805Z,11.10
2023-03-19T02:53:51.223Z,11.09
2023-03-19T02:54:55.051Z,11.09
2023-03-19T02:55:59.108Z,11.02
2023-03-19T02:57:02.722Z,10.96
2023-03-19T02:58:06.641Z,10.94
2023-03-19T02:59:10.717Z,10.94
2023-03-19T03:00:15.387Z,10.93
2023-03-19T03:01:19.961Z,10.88
2023-03-19T03:02:24.013Z,10.87
2023-03-19T03:03:28.145Z,10.80
2023-03-19T03:04:32.961Z,10.76
2023-03-19T03:05:37.596Z,10.80
2023-03-19T03:06:41.243Z,10.84
2023-03-19T03:07:45.823Z,10.86
2023-03-19T03:08:49.505Z,10.87
2023-03-19T03:09:53.641Z,10.89
2023-03-19T03:10:57.463Z,10.85
2023-03-19T03:12:01.884Z,10.82
2023-03-19T03:13:06.576Z,10.79
2023-03-19T03:14:10.628Z,10.86
2023-03-19T03:15:14.850Z,10.90
2023-03-19T03:16:18.383Z,10.94
2023-03-19T03:17:22.277Z,10.92
2023-03-19T03:18:26.715Z,11.00
2023-03-19T03:19:30.690Z,11.01
2023-03-19T03:20:34.743Z,11.01
2023-03-19T03:21:39.049Z,11.03
2023-03-19T03:22:42.722Z,11.02
2023-03-19T03:23:46.419Z,11.07
2023-03-19T03:24:49.935Z,11.12
2023-03-19T03:25:53.857Z,11.16
2023-03-19T03:26:57.907Z,11.15
2023-03-19T03:28:01.479Z,11.14
2023-03-19T03:29:08.308Z,11.17
2023-03-19T03:30:12.136Z,11.19
2023-03-19T03:31:16.176Z,11.22
2023-03-19T03:32:19.791Z,11.27
2023-03-19T03:33:24.063Z,11.31
2023-03-19T03:34:28.098Z,11.38
2023-03-19T03:35:33.582Z,11.44
2023-03-19T03:36:38.013Z,11.46
2023-03-19T03:37:42.034Z,11.49
2023-03-19T03:38:47.413Z,11.52
2023-03-19T03:39:52.032Z,11.56
2023-03-19T03:40:55.751Z,11.58
2023-03-19T03:42:02.345Z,11.63
2023-03-19T03:43:07.382Z,11.65
2023-03-19T03:44:12.596Z,11.66
2023-03-19T03:45:17.712Z,11.67
2023-03-19T03:46:22.148Z,11.68
2023-03-19T03:47:27.534Z,11.72
2023-03-19T03:48:31.683Z,11.74
2023-03-19T03:49:35.600Z,11.77
2023-03-19T03:50:39.184Z,11.79
2023-03-19T03:51:49.293Z,11.80
2023-03-19T03:52:53.172Z,11.83
2023-03-19T03:53:56.675Z,11.83
2023-03-19T03:55:00.266Z,11.74
2023-03-19T03:56:03.704Z,11.63
2023-03-19T03:57:09.097Z,11.53
2023-03-19T03:58:13.620Z,11.53
2023-03-19T03:59:17.473Z,11.45
2023-03-19T04:00:21.799Z,11.39
2023-03-19T04:01:25.387Z,11.29
2023-03-19T04:02:32.262Z,11.29
2023-03-19T04:03:36.142Z,11.25
2023-03-19T04:04:39.722Z,11.23
2023-03-19T04:05:43.592Z,11.28
2023-03-19T04:06:47.496Z,11.31
2023-03-19T04:08:06.918Z,11.37
2023-03-19T04:09:11.038Z,11.40
2023-03-19T04:10:15.874Z,11.45
2023-03-19T04:11:19.799Z,11.48
2023-03-19T04:12:23.444Z,11.53
2023-03-19T04:13:27.436Z,11.49
2023-03-19T04:14:31.862Z,11.44
2023-03-19T04:15:36.234Z,11.46
2023-03-19T04:16:40.077Z,11.50
2023-03-19T04:17:44.228Z,11.50
2023-03-19T04:18:48.136Z,11.53
2023-03-19T04:19:51.774Z,11.53
2023-03-19T04:20:55.209Z,11.59
2023-03-19T04:21:59.439Z,11.58
2023-03-19T04:23:03.983Z,11.59
2023-03-19T04:24:07.780Z,11.59
2023-03-19T04:25:11.949Z,11.64
2023-03-19T04:26:16.660Z,11.66
2023-03-19T04:27:20.590Z,11.66
2023-03-19T04:28:25.062Z,11.65
2023-03-19T04:29:28.971Z,11.63
2023-03-19T04:30:35.318Z,11.65
2023-03-19T04:31:39.759Z,11.60
2023-03-19T04:32:45.189Z,11.60
2023-03-19T04:33:49.402Z,11.60
2023-03-19T04:34:53.384Z,11.60
2023-03-19T04:35:57.177Z,11.59
2023-03-19T04:37:01.431Z,11.58
2023-03-19T04:38:05.960Z,11.54
2023-03-19T04:39:10.289Z,11.53
2023-03-19T04:40:14.830Z,11.50
2023-03-19T04:41:18.893Z,11.46
2023-03-19T04:42:36.777Z,11.42
2023-03-19T04:43:48.128Z,11.40
2023-03-19T04:44:51.932Z,11.39
2023-03-19T04:45:55.458Z,11.39
2023-03-19T04:46:59.531Z,11.38
2023-03-19T04:48:04.311Z,11.34
2023-03-19T04:49:09.820Z,11.33
2023-03-19T04:50:14.444Z,11.32
2023-03-19T04:51:22.109Z,11.27
2023-03-19T04:52:26.270Z,11.27
2023-03-19T04:53:31.742Z,11.23
2023-03-19T04:54:35.312Z,11.21
2023-03-19T04:55:40.216Z,11.17
2023-03-19T04:56:53.730Z,11.15
2023-03-19T04:57:59.796Z,11.16
2023-03-19T04:59:06.002Z,11.18
2023-03-19T05:00:10.284Z,11.19
2023-03-19T05:01:16.568Z,11.15
2023-03-19T05:02:39.018Z,11.12
2023-03-19T05:03:42.879Z,11.10
2023-03-19T05:04:46.403Z,11.08
2023-03-19T05:05:51.554Z,11.02
2023-03-19T05:06:55.154Z,11.02
2023-03-19T05:07:59.088Z,11.03
2023-03-19T05:09:03.689Z,10.98
2023-03-19T05:10:09.019Z,10.99
2023-03-19T05:11:13.363Z,11.00
2023-03-19T05:12:33.100Z,10.97
2023-03-19T05:13:36.829Z,10.94
2023-03-19T05:14:40.795Z,10.91
2023-03-19T05:15:50.381Z,10.90
2023-03-19T05:16:54.809Z,10.90
2023-03-19T05:17:58.835Z,10.89
2023-03-19T05:19:11.739Z,10.89
2023-03-19T05:20:16.129Z,10.90
2023-03-19T05:21:25.589Z,10.93
2023-03-19T05:22:30.012Z,10.90
2023-03-19T05:23:34.216Z,10.87
2023-03-19T05:24:42.725Z,10.88
2023-03-19T05:25:47.012Z,10.84
2023-03-19T05:26:55.497Z,10.86
2023-03-19T05:28:17.062Z,10.83
2023-03-19T05:29:21.117Z,10.84
2023-03-19T05:30:36.977Z,10.82
2023-03-19T05:32:03.613Z,10.80
2023-03-19T05:33:09.211Z,10.76
2023-03-19T05:34:18.443Z,10.78
2023-03-19T05:35:22.455Z,10.73
2023-03-19T05:36:26.662Z,10.75
2023-03-19T05:37:41.680Z,10.74
2023-03-19T05:38:45.543Z,10.72
2023-03-19T05:39:55.909Z,10.69
2023-03-19T05:41:05.454Z,10.71
2023-03-19T05:42:24.665Z,10.70
2023-03-19T05:43:28.685Z,10.72
2023-03-19T05:44:33.218Z,10.73
2023-03-19T05:45:54.150Z,10.74
2023-03-19T05:47:03.154Z,10.78
2023-03-19T05:48:10.676Z,10.77
2023-03-19T05:49:18.932Z,10.74
2023-03-19T05:50:22.559Z,10.78
2023-03-19T05:51:53.051Z,10.76
2023-03-19T05:52:58.343Z,10.74
2023-03-19T05:54:02.609Z,10.71
2023-03-19T05:55:29.210Z,10.64
2023-03-19T05:56:45.399Z,10.60
2023-03-19T05:58:03.916Z,10.61
2023-03-19T05:59:08.046Z,10.61
2023-03-19T06:00:16.558Z,10.57
2023-03-19T06:01:19.920Z,10.54
2023-03-19T06:02:23.810Z,10.52
2023-03-19T06:03:34.694Z,10.44
2023-03-19T06:04:42.898Z,10.44
2023-03-19T06:05:49.536Z,10.40
2023-03-19T06:07:22.257Z,10.34
2023-03-19T06:08:26.174Z,10.33
2023-03-19T06:09:39.112Z,10.31
2023-03-19T06:10:42.782Z,10.30
2023-03-19T06:11:47.541Z,10.30
2023-03-19T06:13:11.318Z,10.34
2023-03-19T06:14:35.317Z,10.32
2023-03-19T06:15:59.022Z,10.30
2023-03-19T06:17:08.462Z,10.29
2023-03-19T06:18:12.793Z,10.26
2023-03-19T06:19:16.826Z,10.25
2023-03-19T06:20:20.603Z,10.24
2023-03-19T06:21:30.018Z,10.25
2023-03-19T06:22:36.777Z,10.26
2023-03-19T06:23:41.880Z,10.25
2023-03-19T06:24:48.231Z,10.24
2023-03-19T06:25:52.547Z,10.23
2023-03-19T06:26:58.450Z,10.24
2023-03-19T06:28:02.278Z,10.24
2023-03-19T06:29:11.985Z,10.25
2023-03-19T06:30:17.248Z,10.27
2023-03-19T06:31:21.487Z,10.27
2023-03-19T06:32:31.372Z,10.27
2023-03-19T06:33:41.019Z,10.28
2023-03-19T06:34:46.300Z,10.28
2023-03-19T06:35:50.552Z,10.31
2023-03-19T06:36:54.805Z,10.30
2023-03-19T06:37:58.996Z,10.31
2023-03-19T06:39:04.065Z,10.30
2023-03-19T06:40:08.504Z,10.28
2023-03-19T06:41:12.650Z,10.32
2023-03-19T06:42:16.777Z,10.31
2023-03-19T06:43:20.322Z,10.32
2023-03-19T06:44:26.046Z,10.35
2023-03-19T06:45:29.575Z,10.37
2023-03-19T06:46:33.061Z,10.40
2023-03-19T06:47:36.678Z,10.42
2023-03-19T06:48:40.291Z,10.43
2023-03-19T06:49:44.180Z,10.44
2023-03-19T06:50:48.182Z,10.46
2023-03-19T06:51:52.468Z,10.49
2023-03-19T06:52:56.481Z,10.55
2023-03-19T06:54:00.590Z,10.59
2023-03-19T06:55:05.334Z,10.65
2023-03-19T06:56:08.849Z,10.68
2023-03-19T06:57:12.721Z,10.73
2023-03-19T06:58:16.453Z,10.77
2023-03-19T06:59:20.333Z,10.82
2023-03-19T07:00:24.303Z,10.84
2023-03-19T07:01:28.256Z,10.91
2023-03-19T07:02:32.361Z,11.03
2023-03-19T07:03:35.834Z,11.35
2023-03-19T07:04:39.784Z,11.93
2023-03-19T07:05:43.315Z,12.66
2023-03-19T07:06:46.970Z,13.42
2023-03-19T07:07:50.494Z,14.15
2023-03-19T07:08:54.399Z,14.86
2023-03-19T07:09:58.390Z,15.60
2023-03-19T07:11:08.151Z,16.33
2023-03-19T07:12:11.819Z,16.95
2023-03-19T07:13:15.735Z,17.48
2023-03-19T07:14:19.264Z,17.92
2023-03-19T07:15:23.308Z,18.24
2023-03-19T07:16:27.279Z,18.61
2023-03-19T07:17:31.005Z,18.92
2023-03-19T07:18:34.621Z,19.21
2023-03-19T07:19:38.069Z,19.44
2023-03-19T07:20:42.015Z,19.74
2023-03-19T07:21:46.106Z,20.01
2023-03-19T07:22:52.554Z,20.17
2023-03-19T07:23:56.517Z,20.35
2023-03-19T07:25:00.196Z,20.56
2023-03-19T07:26:04.480Z,20.76
2023-03-19T07:27:08.135Z,20.87
2023-03-19T07:28:11.702Z,20.97
2023-03-19T07:29:15.587Z,20.83
2023-03-19T07:30:19.796Z,20.94
2023-03-19T07:31:23.477Z,21.21
2023-03-19T07:32:26.895Z,21.25
2023-03-19T07:33:30.736Z,21.57
2023-03-19T07:34:34.361Z,21.85
2023-03-19T07:35:38.516Z,22.01
2023-03-19T07:36:42.475Z,22.43
2023-03-19T07:37:46.460Z,22.79
2023-03-19T07:38:51.473Z,23.14
2023-03-19T07:39:54.953Z,23.50
2023-03-19T07:41:02.669Z,23.72
2023-03-19T07:42:07.113Z,23.74
2023-03-19T07:43:10.608Z,22.93
2023-03-19T07:44:14.479Z,22.20
2023-03-19T07:45:18.173Z,21.30
2023-03-19T07:46:22.383Z,20.09
2023-03-19T07:47:29.240Z,19.08
2023-03-19T07:48:33.109Z,17.91
2023-03-19T07:49:36.523Z,17.74
2023-03-19T07:50:40.062Z,18.36
2023-03-19T07:51:43.566Z,18.23
2023-03-19T07:52:49.086Z,19.19
2023-03-19T07:53:53.197Z,19.76
2023-03-19T07:54:57.249Z,20.06
2023-03-19T07:56:00.948Z,20.70
2023-03-19T07:57:04.509Z,20.70
2023-03-19T07:58:08.441Z,21.08
2023-03-19T07:59:12.582Z,21.12
2023-03-19T08:00:16.652Z,21.95
2023-03-19T08:01:21.848Z,22.84
2023-03-19T08:02:25.414Z,23.33
2023-03-19T08:03:30.164Z,23.65
2023-03-19T08:04:33.710Z,23.72
2023-03-19T08:05:37.304Z,23.46
2023-03-19T08:06:41.157Z,23.29
2023-03-19T08:07:45.962Z,23.49
2023-03-19T08:08:49.583Z,23.91
2023-03-19T08:09:53.048Z,23.87
2023-03-19T08:10:57.403Z,24.50
2023-03-19T08:12:01.491Z,25.14
2023-03-19T08:13:05.835Z,24.84
2023-03-19T08:14:09.334Z,24.87
2023-03-19T08:15:13.272Z,25.32
2023-03-19T08:16:17.309Z,24.89
2023-03-19T08:17:21.226Z,25.27
2023-03-19T08:18:25.207Z,25.30
2023-03-19T08:19:28.945Z,25.40
2023-03-19T08:20:32.878Z,25.47
2023-03-19T08:21:36.976Z,24.95
2023-03-19T08:22:41.560Z,24.85
2023-03-19T08:23:45.596Z,24.94
2023-03-19T08:24:49.565Z,25.35
2023-03-19T08:25:54.453Z,25.91
2023-03-19T08:26:58.344Z,26.38
2023-03-19T08:28:02.564Z,26.70
2023-03-19T08:29:07.142Z,25.72
2023-03-19T08:30:11.299Z,25.67
2023-03-19T08:31:15.633Z,25.48
2023-03-19T08:32:20.029Z,25.29
2023-03-19T08:33:24.031Z,25.63
2023-03-19T08:34:28.029Z,25.71
2023-03-19T08:35:31.796Z,26.14
2023-03-19T08:36:35.611Z,25.44
2023-03-19T08:37:39.468Z,25.53
2023-03-19T08:38:43.883Z,25.52
2023-03-19T08:39:48.083Z,26.26
2023-03-19T08:40:51.644Z,26.53
2023-03-19T08:41:55.213Z,26.39
2023-03-19T08:42:58.824Z,26.61
2023-03-19T08:44:02.744Z,26.29
2023-03-19T08:45:07.194Z,26.67
2023-03-19T08:46:10.859Z,26.61
2023-03-19T08:47:14.311Z,27.26
2023-03-19T08:48:18.207Z,26.86
2023-03-19T08:49:22.405Z,27.52
2023-03-19T08:50:26.143Z,27.88
2023-03-19T08:51:31.645Z,27.98
2023-03-19T08:52:35.597Z,27.99
2023-03-19T08:53:39.530Z,27.58
2023-03-19T08:54:44.049Z,27.24
2023-03-19T08:56:02.078Z,26.92
2023-03-19T08:57:06.168Z,26.09
2023-03-19T08:58:10.217Z,25.69
2023-03-19T08:59:14.163Z,26.12
2023-03-19T09:00:18.300Z,26.81
2023-03-19T09:01:21.956Z,27.37
2023-03-19T09:02:25.545Z,27.99
2023-03-19T09:03:29.322Z,28.00
2023-03-19T09:04:37.636Z,28.32
2023-03-19T09:05:41.252Z,28.54
2023-03-19T09:06:45.677Z,29.07
2023-03-19T09:07:49.554Z,29.45
2023-03-19T09:08:53.188Z,28.76
2023-03-19T09:09:57.104Z,28.52
2023-03-19T09:11:01.359Z,28.68
2023-03-19T09:12:05.349Z,27.90
2023-03-19T09:13:08.948Z,28.68
2023-03-19T09:14:13.514Z,28.80
2023-03-19T09:15:17.566Z,29.15
2023-03-19T09:16:21.178Z,29.25
2023-03-19T09:17:24.652Z,29.75
2023-03-19T09:18:28.593Z,29.81
2023-03-19T09:19:32.730Z,29.72
2023-03-19T09:20:36.285Z,29.37
2023-03-19T09:21:40.200Z,28.63
2023-03-19T09:22:44.084Z,28.43
2023-03-19T09:23:47.699Z,28.42
2023-03-19T09:24:51.782Z,29.27
2023-03-19T09:25:55.367Z,29.96
2023-03-19T09:26:59.276Z,28.86
2023-03-19T09:28:02.928Z,27.91
2023-03-19T09:29:06.917Z,28.48
2023-03-19T09:30:11.292Z,28.76
2023-03-19T09:31:15.213Z,28.59
2023-03-19T09:32:19.174Z,29.05
2023-03-19T09:33:22.808Z,29.62
2023-03-19T09:34:26.841Z,29.42
2023-03-19T09:35:31.902Z,28.85
2023-03-19T09:36:37.493Z,27.75
2023-03-19T09:37:41.456Z,27.88
2023-03-19T09:38:44.970Z,25.73
2023-03-19T09:39:49.033Z,26.99
2023-03-19T09:41:07.630Z,28.27
2023-03-19T09:42:41.456Z,27.46
2023-03-19T09:43:50.380Z,25.40
2023-03-19T09:44:54.092Z,24.57
2023-03-19T09:45:57.918Z,24.31
2023-03-19T09:47:17.828Z,24.21
2023-03-19T09:48:39.672Z,24.75
2023-03-19T09:49:49.878Z,25.77
2023-03-19T09:50:53.354Z,26.27
2023-03-19T09:52:33.602Z,26.74
2023-03-19T09:53:55.016Z,26.85
2023-03-19T09:55:00.541Z,27.59
2023-03-19T09:56:04.774Z,28.09
2023-03-19T09:57:09.778Z,28.58
2023-03-19T09:58:24.801Z,29.41
2023-03-19T09:59:28.828Z,29.67
2023-03-19T10:00:41.643Z,30.16
2023-03-19T10:01:48.730Z,29.96
2023-03-19T10:02:54.553Z,29.47
2023-03-19T10:04:04.095Z,28.57
2023-03-19T10:05:25.986Z,29.23
2023-03-19T10:06:35.993Z,29.38
2023-03-19T10:08:11.435Z,30.07
2023-03-19T10:09:36.433Z,30.70
2023-03-19T10:10:52.538Z,30.96
2023-03-19T10:12:22.824Z,31.20
2023-03-19T10:13:57.749Z,31.26
2023-03-19T10:15:21.125Z,31.00
2023-03-19T10:16:27.355Z,30.37
2023-03-19T10:17:42.514Z,30.21
2023-03-19T10:18:48.825Z,30.15
2023-03-19T10:20:29.685Z,29.91
2023-03-19T10:21:49.237Z,29.83
2023-03-19T10:22:55.465Z,29.62
2023-03-19T10:24:14.866Z,30.15
2023-03-19T10:25:26.562Z,29.82
2023-03-19T10:26:36.058Z,28.72
2023-03-19T10:27:39.468Z,29.24
2023-03-19T10:28:45.295Z,28.66
2023-03-19T10:29:48.856Z,27.97
2023-03-19T10:31:03.087Z,28.53
2023-03-19T10:32:19.928Z,28.48
2023-03-19T10:33:25.422Z,29.49
2023-03-19T10:34:36.591Z,29.60
2023-03-19T10:35:45.343Z,29.93
2023-03-19T10:36:49.378Z,30.18
2023-03-19T10:37:55.676Z,30.71
2023-03-19T10:38:59.782Z,30.16
2023-03-19T10:40:03.514Z,30.66
2023-03-19T10:41:31.301Z,31.38
2023-03-19T10:42:53.001Z,31.83
2023-03-19T10:44:02.616Z,31.87
2023-03-19T10:45:29.734Z,32.08
2023-03-19T10:46:42.785Z,32.36
2023-03-19T10:47:47.248Z,32.23
2023-03-19T10:48:51.190Z,32.62
2023-03-19T10:49:56.575Z,32.56
2023-03-19T10:51:05.777Z,32.43
2023-03-19T10:52:26.036Z,30.96
2023-03-19T10:53:39.668Z,30.95
2023-03-19T10:54:44.600Z,31.20
2023-03-19T10:55:54.120Z,30.86
2023-03-19T10:56:59.256Z,31.31
2023-03-19T10:58:29.477Z,31.41
2023-03-19T10:59:38.847Z,31.73
2023-03-19T11:00:42.380Z,31.88
2023-03-19T11:01:46.022Z,32.03
2023-03-19T11:02:51.345Z,32.04
2023-03-19T11:03:59.594Z,32.08
2023-03-19T11:05:15.850Z,32.21
2023-03-19T11:06:20.461Z,32.28
2023-03-19T11:07:24.311Z,32.06
2023-03-19T11:08:35.519Z,31.87
2023-03-19T11:09:43.382Z,31.78
2023-03-19T11:10:48.627Z,31.16
2023-03-19T11:11:55.016Z,31.24
2023-03-19T11:13:07.126Z,30.79
2023-03-19T11:14:22.080Z,30.70
2023-03-19T11:15:46.842Z,30.54
2023-03-19T11:16:51.693Z,30.55
2023-03-19T11:17:59.829Z,30.42
2023-03-19T11:19:03.933Z,30.23
2023-03-19T11:20:32.467Z,30.34
2023-03-19T11:21:38.187Z,30.70
2023-03-19T11:22:42.068Z,30.76
2023-03-19T11:23:45.977Z,30.73
2023-03-19T11:25:02.950Z,30.70
2023-03-19T11:26:06.389Z,30.51
2023-03-19T11:27:10.941Z,30.49
2023-03-19T11:28:26.375Z,30.33
2023-03-19T11:29:30.722Z,30.39
2023-03-19T11:30:50.310Z,30.43
2023-03-19T11:32:21.900Z,30.45
2023-03-19T11:33:47.113Z,29.84
2023-03-19T11:35:02.576Z,30.14
2023-03-19T11:36:38.104Z,30.30
2023-03-19T11:37:57.994Z,30.41
2023-03-19T11:39:46.238Z,30.88
2023-03-19T11:40:55.708Z,31.20
2023-03-19T11:42:08.335Z,31.52
2023-03-19T11:43:31.182Z,30.95
2023-03-19T11:44:59.697Z,30.68
2023-03-19T11:46:06.161Z,30.85
2023-03-19T11:47:26.844Z,31.23
2023-03-19T11:48:54.349Z,31.41
2023-03-19T11:50:34.717Z,31.80
2023-03-19T11:51:52.336Z,31.69
2023-03-19T11:53:02.774Z,31.48
2023-03-19T11:54:23.681Z,31.63
2023-03-19T11:55:38.128Z,31.51
2023-03-19T11:56:49.247Z,31.72
2023-03-19T11:58:15.643Z,31.86
2023-03-19T11:59:22.396Z,31.62
2023-03-19T12:00:37.128Z,31.88
2023-03-19T12:02:19.206Z,31.89
2023-03-19T12:04:15.793Z,32.69
2023-03-19T12:05:57.688Z,32.81
2023-03-19T12:07:07.496Z,32.89
2023-03-19T12:08:16.963Z,32.79
2023-03-19T12:09:29.422Z,31.99
2023-03-19T12:10:43.154Z,32.09
2023-03-19T12:11:54.309Z,32.58
2023-03-19T12:13:06.745Z,32.48
2023-03-19T12:14:27.631Z,32.23
2023-03-19T12:15:47.389Z,32.73
2023-03-19T12:17:09.684Z,32.97
2023-03-19T12:18:49.789Z,33.08
2023-03-19T12:20:05.077Z,33.52
2023-03-19T12:21:21.089Z,33.60
2023-03-19T12:22:49.862Z,33.78
2023-03-19T12:24:07.743Z,33.37
2023-03-19T12:25:40.186Z,33.02
2023-03-19T12:27:03.871Z,32.84
2023-03-19T12:28:28.382Z,32.16
2023-03-19T12:29:31.827Z,32.58
2023-03-19T12:30:43.583Z,32.62
2023-03-19T12:32:18.358Z,32.86
2023-03-19T12:33:37.774Z,32.54
2023-03-19T12:34:55.822Z,32.45
2023-03-19T12:36:00.008Z,32.14
2023-03-19T12:37:12.518Z,32.84
2023-03-19T12:38:20.747Z,33.24
2023-03-19T12:39:31.326Z,33.03
2023-03-19T12:40:57.573Z,32.37
2023-03-19T12:42:01.668Z,32.04
2023-03-19T12:43:13.589Z,32.14
2023-03-19T12:44:28.344Z,32.44
2023-03-19T12:45:46.137Z,31.96
2023-03-19T12:47:00.041Z,32.24
2023-03-19T12:48:26.326Z,32.05
2023-03-19T12:49:55.608Z,32.19
2023-03-19T12:51:04.049Z,32.40
2023-03-19T12:52:24.857Z,32.21
2023-03-19T12:53:47.363Z,32.43
2023-03-19T12:55:04.986Z,32.51
2023-03-19T12:56:11.791Z,32.71
2023-03-19T12:57:41.114Z,32.71
2023-03-19T12:59:16.052Z,32.97
2023-03-19T13:00:26.066Z,32.85
2023-03-19T13:01:36.530Z,32.86
2023-03-19T13:02:54.754Z,33.15
2023-03-19T13:04:22.942Z,33.44
2023-03-19T13:05:35.876Z,33.41
2023-03-19T13:06:46.119Z,33.47
2023-03-19T13:08:01.889Z,33.20
2023-03-19T13:09:13.850Z,33.16
2023-03-19T13:10:21.562Z,33.21
2023-03-19T13:11:30.648Z,32.37
2023-03-19T13:12:35.207Z,32.51
2023-03-19T13:13:52.155Z,32.28
2023-03-19T13:14:59.241Z,31.83
2023-03-19T13:16:26.157Z,31.88
2023-03-19T13:17:50.731Z,31.95
2023-03-19T13:19:09.096Z,31.49
2023-03-19T13:20:19.798Z,31.34
2023-03-19T13:21:36.646Z,31.44
2023-03-19T13:22:41.223Z,31.55
2023-03-19T13:23:44.857Z,31.23
2023-03-19T13:24:48.548Z,30.92
2023-03-19T13:25:53.352Z,30.08
2023-03-19T13:26:57.687Z,30.20
2023-03-19T13:28:01.958Z,29.99
2023-03-19T13:29:23.041Z,29.50
2023-03-19T13:30:27.374Z,28.91
2023-03-19T13:31:35.784Z,28.81
2023-03-19T13:32:49.087Z,28.67
2023-03-19T13:34:06.165Z,28.57
2023-03-19T13:35:14.643Z,28.66
2023-03-19T13:36:18.460Z,28.51
2023-03-19T13:37:22.780Z,28.39
2023-03-19T13:38:26.894Z,27.86
2023-03-19T13:39:32.746Z,27.79
2023-03-19T13:40:39.972Z,27.81
2023-03-19T13:41:43.832Z,27.58
2023-03-19T13:42:47.397Z,27.40
2023-03-19T13:43:54.958Z,27.06
2023-03-19T13:45:04.569Z,26.92
2023-03-19T13:46:14.327Z,26.96
2023-03-19T13:47:30.081Z,26.75
2023-03-19T13:48:33.771Z,26.62
2023-03-19T13:49:37.729Z,26.14
2023-03-19T13:51:13.650Z,25.99
2023-03-19T13:52:17.615Z,25.72
2023-03-19T13:53:35.215Z,25.57
2023-03-19T13:54:42.070Z,25.45
2023-03-19T13:55:59.958Z,25.33
2023-03-19T13:57:06.373Z,25.07
2023-03-19T13:58:13.078Z,24.89
2023-03-19T13:59:16.395Z,24.96
2023-03-19T14:00:44.506Z,24.90
2023-03-19T14:01:48.021Z,24.79
2023-03-19T14:02:54.402Z,24.73
2023-03-19T14:04:03.036Z,24.63
2023-03-19T14:05:24.946Z,24.29
2023-03-19T14:06:43.343Z,24.37
2023-03-19T14:07:52.230Z,24.43
2023-03-19T14:08:55.651Z,24.32
2023-03-19T14:10:00.538Z,24.17
2023-03-19T14:11:06.589Z,24.09
2023-03-19T14:12:19.541Z,23.97
2023-03-19T14:13:43.520Z,23.95
2023-03-19T14:14:49.547Z,23.95
2023-03-19T14:15:53.506Z,23.91
2023-03-19T14:16:57.430Z,23.72
2023-03-19T14:18:03.240Z,23.64
2023-03-19T14:19:12.165Z,23.64
2023-03-19T14:20:19.472Z,23.57
2023-03-19T14:22:07.622Z,23.60
2023-03-19T14:23:11.923Z,23.20
2023-03-19T14:24:54.886Z,23.03
2023-03-19T14:26:36.641Z,23.11
2023-03-19T14:27:43.343Z,23.18
2023-03-19T14:29:00.522Z,23.12
2023-03-19T14:30:29.417Z,23.01
2023-03-19T14:31:51.060Z,22.91
2023-03-19T14:32:56.325Z,22.91
2023-03-19T14:34:12.780Z,22.77
2023-03-19T14:35:17.898Z,22.74
2023-03-19T14:36:22.291Z,22.82
2023-03-19T14:37:29.288Z,22.89
2023-03-19T14:39:08.796Z,22.89
2023-03-19T14:40:34.517Z,22.85
2023-03-19T14:41:43.308Z,22.65
2023-03-19T14:43:04.484Z,22.56
2023-03-19T14:44:38.625Z,22.45
2023-03-19T14:45:53.741Z,22.49
2023-03-19T14:47:38.273Z,22.66